createdAt,value
2018-09-16T00:01:49.777Z,11.45
2018-09-16T00:04:20.713Z,14.25
2018-09-16T00:06:51.488Z,10.48
2018-09-16T00:09:22.808Z,10.62
2018-09-16T00:11:53.581Z,9.90
2018-09-16T00:14:24.890Z,10.42
2018-09-16T00:16:55.655Z,11.25
2018-09-16T00:19:26.580Z,10.58
2018-09-16T00:21:57.454Z,11.25
2018-09-16T00:24:28.954Z,13.34
2018-09-16T00:26:59.647Z,10.23
2018-09-16T00:29:31.175Z,10.60
2018-09-16T00:32:05.882Z,11.00
2018-09-16T00:34:35.781Z,7.80
2018-09-16T00:37:10.273Z,12.23
2018-09-16T00:39:40.217Z,11.80
2018-09-16T00:42:10.456Z,8.88
2018-09-16T00:44:40.249Z,9.60
2018-09-16T00:47:10.196Z,8.90
2018-09-16T00:49:40.076Z,10.03
2018-09-16T00:52:10.566Z,10.07
2018-09-16T00:54:40.288Z,7.93
2018-09-16T00:57:10.826Z,8.78
2018-09-16T00:59:41.712Z,11.45
2018-09-16T01:02:11.708Z,13.30
2018-09-16T01:04:42.646Z,7.78
2018-09-16T01:07:13.474Z,8.80
2018-09-16T01:09:44.826Z,8.22
2018-09-16T01:12:15.573Z,8.55
2018-09-16T01:14:47.516Z,7.34
2018-09-16T01:17:17.415Z,11.00
2018-09-16T01:19:49.343Z,9.92
2018-09-16T01:22:20.233Z,10.38
2018-09-16T01:24:50.718Z,9.45
2018-09-16T01:27:21.824Z,7.55
2018-09-16T01:29:52.594Z,9.95
2018-09-16T01:32:23.491Z,7.42
2018-09-16T01:34:54.700Z,9.28
2018-09-16T01:37:30.512Z,7.58
2018-09-16T01:40:00.358Z,9.43
2018-09-16T01:42:30.343Z,9.18
2018-09-16T01:45:00.347Z,9.03
2018-09-16T01:47:30.328Z,8.00
2018-09-16T01:50:00.832Z,7.95
2018-09-16T01:52:31.586Z,11.38
2018-09-16T01:55:02.899Z,7.28
2018-09-16T01:57:33.729Z,7.37
2018-09-16T02:00:04.932Z,8.20
2018-09-16T02:02:35.865Z,8.35
2018-09-16T02:05:06.859Z,8.28
2018-09-16T02:07:38.032Z,6.12
2018-09-16T02:10:18.542Z,7.70
2018-09-16T02:12:49.164Z,8.23
2018-09-16T02:15:20.254Z,9.20
2018-09-16T02:17:50.996Z,7.33
2018-09-16T02:20:21.374Z,6.33
2018-09-16T02:22:51.220Z,8.23
2018-09-16T02:25:21.042Z,6.63
2018-09-16T02:27:51.626Z,6.90
2018-09-16T02:30:21.494Z,9.13
2018-09-16T02:32:51.329Z,6.53
2018-09-16T02:35:21.792Z,7.48
2018-09-16T02:37:51.665Z,7.67
2018-09-16T02:40:21.652Z,18.07
2018-09-16T02:42:51.525Z,8.17
2018-09-16T02:45:23.266Z,7.26
2018-09-16T02:47:53.916Z,10.53
2018-09-16T02:50:24.798Z,7.28
2018-09-16T02:52:56.033Z,5.62
2018-09-16T02:55:26.686Z,5.78
2018-09-16T02:57:59.146Z,6.65
2018-09-16T03:00:28.930Z,8.53
2018-09-16T03:02:59.821Z,6.37
2018-09-16T03:05:35.432Z,5.15
2018-09-16T03:08:05.453Z,7.13
2018-09-16T03:10:35.314Z,5.90
2018-09-16T03:13:05.317Z,5.53
2018-09-16T03:15:35.149Z,7.27
2018-09-16T03:18:05.676Z,6.95
2018-09-16T03:20:36.534Z,5.90
2018-09-16T03:23:07.385Z,7.55
2018-09-16T03:25:39.061Z,5.58
2018-09-16T03:28:09.774Z,5.08
2018-09-16T03:30:40.921Z,7.45
2018-09-16T03:33:11.690Z,5.05
2018-09-16T03:35:42.534Z,6.05
2018-09-16T03:38:14.103Z,8.54
2018-09-16T03:40:44.969Z,9.10
2018-09-16T03:43:15.799Z,5.45
2018-09-16T03:45:46.690Z,8.73
2018-09-16T03:48:17.509Z,9.98
2018-09-16T03:50:48.624Z,8.53
2018-09-16T03:53:19.573Z,6.70
2018-09-16T03:55:50.495Z,6.50
2018-09-16T03:58:21.357Z,6.30
2018-09-16T04:00:52.753Z,6.70
2018-09-16T04:03:23.481Z,5.30
2018-09-16T04:05:54.890Z,6.42
2018-09-16T04:08:25.686Z,5.47
2018-09-16T04:10:56.603Z,5.87
2018-09-16T04:13:27.400Z,7.22
2018-09-16T04:15:58.962Z,6.10
2018-09-16T04:18:29.677Z,4.75
2018-09-16T04:21:00.604Z,4.33
2018-09-16T04:23:43.838Z,5.55
2018-09-16T04:26:14.398Z,5.87
2018-09-16T04:28:44.558Z,5.20
2018-09-16T04:31:15.717Z,6.63
2018-09-16T04:33:45.523Z,5.93
2018-09-16T04:36:15.284Z,5.30
2018-09-16T04:38:45.116Z,5.10
2018-09-16T04:41:15.757Z,5.17
2018-09-16T04:43:45.585Z,4.80
2018-09-16T04:46:15.469Z,5.50
2018-09-16T04:48:45.352Z,9.77
2018-09-16T04:51:15.213Z,8.98
2018-09-16T04:53:45.473Z,6.20
2018-09-16T04:56:15.389Z,7.87
2018-09-16T04:58:46.186Z,5.52
2018-09-16T05:01:16.898Z,7.03
2018-09-16T05:03:47.589Z,5.95
2018-09-16T05:06:18.590Z,4.92
2018-09-16T05:08:49.453Z,8.83
2018-09-16T05:11:20.776Z,6.92
2018-09-16T05:13:51.621Z,7.55
2018-09-16T05:16:22.479Z,7.15
2018-09-16T05:18:53.663Z,5.80
2018-09-16T05:21:25.012Z,7.05
2018-09-16T05:23:55.801Z,5.47
2018-09-16T05:26:26.626Z,5.22
2018-09-16T05:28:57.608Z,4.70
2018-09-16T05:31:28.330Z,5.00
2018-09-16T05:33:58.343Z,7.25
2018-09-16T05:36:29.795Z,8.94
2018-09-16T05:39:00.516Z,6.55
2018-09-16T05:41:31.966Z,9.70
2018-09-16T05:44:03.039Z,8.58
2018-09-16T05:46:33.747Z,7.60
2018-09-16T05:49:04.782Z,9.10
2018-09-16T05:51:35.659Z,6.30
2018-09-16T05:54:06.433Z,6.50
2018-09-16T05:56:37.823Z,5.62
2018-09-16T05:59:09.503Z,5.00
2018-09-16T06:01:39.594Z,6.85
2018-09-16T06:04:10.441Z,5.28
2018-09-16T06:06:41.966Z,6.84
2018-09-16T06:09:14.426Z,6.87
2018-09-16T06:11:44.442Z,6.93
2018-09-16T06:14:14.683Z,7.63
2018-09-16T06:16:46.119Z,6.40
2018-09-16T06:19:16.668Z,5.17
2018-09-16T06:21:48.676Z,9.53
2018-09-16T06:24:18.846Z,9.77
2018-09-16T06:26:49.731Z,9.95
2018-09-16T06:29:20.565Z,7.12
2018-09-16T06:31:51.312Z,6.83
2018-09-16T06:34:21.789Z,8.14
2018-09-16T06:36:52.683Z,7.10
2018-09-16T06:39:23.462Z,5.42
2018-09-16T06:41:54.987Z,7.44
2018-09-16T06:44:25.850Z,9.13
2018-09-16T06:46:56.745Z,8.15
2018-09-16T06:49:27.497Z,8.48
2018-09-16T06:51:58.618Z,4.83
2018-09-16T06:54:29.427Z,9.20
2018-09-16T06:57:00.842Z,8.42
2018-09-16T06:59:31.641Z,8.28
2018-09-16T07:02:02.624Z,5.28
2018-09-16T07:04:33.491Z,5.85
2018-09-16T07:07:04.553Z,8.35
2018-09-16T07:09:35.712Z,4.60
2018-09-16T07:12:06.646Z,6.58
2018-09-16T07:14:38.044Z,5.75
2018-09-16T07:17:08.983Z,9.13
2018-09-16T07:19:39.650Z,7.72
2018-09-16T07:22:10.709Z,6.20
2018-09-16T07:24:41.465Z,5.33
2018-09-16T07:27:12.762Z,7.92
2018-09-16T07:29:43.721Z,5.72
2018-09-16T07:32:14.610Z,6.70
2018-09-16T07:34:46.196Z,4.55
2018-09-16T07:37:16.823Z,6.05
2018-09-16T07:39:46.584Z,4.15
2018-09-16T07:42:17.517Z,4.22
2018-09-16T07:44:48.749Z,5.10
2018-09-16T07:47:19.781Z,4.53
2018-09-16T07:49:50.510Z,2.92
2018-09-16T07:52:21.777Z,4.14
2018-09-16T07:54:52.441Z,3.85
2018-09-16T07:57:23.864Z,5.80
2018-09-16T07:59:54.970Z,4.80
2018-09-16T08:02:25.745Z,4.75
2018-09-16T08:04:56.626Z,8.10
2018-09-16T08:07:27.500Z,3.05
2018-09-16T08:09:58.305Z,3.20
2018-09-16T08:12:29.785Z,6.56
2018-09-16T08:15:00.557Z,6.83
2018-09-16T08:17:31.592Z,5.75
2018-09-16T08:20:02.393Z,5.17
2018-09-16T08:22:39.252Z,2.70
2018-09-16T08:25:09.590Z,2.90
2018-09-16T08:27:39.574Z,4.43
2018-09-16T08:30:09.564Z,3.35
2018-09-16T08:32:39.328Z,4.80
2018-09-16T08:35:09.282Z,5.50
2018-09-16T08:37:39.775Z,4.26
2018-09-16T08:40:09.607Z,5.27
2018-09-16T08:42:40.389Z,3.85
2018-09-16T08:45:11.782Z,2.08
2018-09-16T08:47:42.677Z,4.87
2018-09-16T08:50:13.641Z,5.60
2018-09-16T08:52:44.612Z,2.25
2018-09-16T08:55:15.405Z,4.85
2018-09-16T08:57:46.738Z,2.34
2018-09-16T09:00:17.778Z,4.15
2018-09-16T09:02:48.528Z,1.95
2018-09-16T09:05:19.473Z,2.02
2018-09-16T09:07:50.152Z,1.54
2018-09-16T09:10:20.669Z,1.92
2018-09-16T09:12:51.379Z,1.62
2018-09-16T09:15:23.168Z,3.74
2018-09-16T09:17:53.655Z,3.85
2018-09-16T09:20:24.448Z,3.35
2018-09-16T09:22:55.511Z,3.02
2018-09-16T09:25:26.398Z,3.70
2018-09-16T09:27:57.793Z,3.14
2018-09-16T09:30:28.700Z,3.30
2018-09-16T09:32:59.570Z,5.80
2018-09-16T09:35:30.384Z,1.25
2018-09-16T09:38:01.929Z,8.92
2018-09-16T09:40:32.615Z,3.65
2018-09-16T09:43:03.837Z,2.98
2018-09-16T09:45:34.526Z,3.95
2018-09-16T09:48:05.473Z,2.67
2018-09-16T09:50:36.775Z,2.50
2018-09-16T09:53:07.961Z,2.35
2018-09-16T09:55:38.732Z,3.52
2018-09-16T09:58:09.624Z,2.50
2018-09-16T10:00:45.822Z,1.80
2018-09-16T10:03:15.730Z,4.78
2018-09-16T10:05:45.893Z,3.33
2018-09-16T10:08:16.060Z,3.73
2018-09-16T10:10:46.610Z,3.00
2018-09-16T10:13:16.433Z,4.30
2018-09-16T10:15:46.453Z,3.45
2018-09-16T10:18:18.082Z,3.58
2018-09-16T10:20:48.687Z,2.67
2018-09-16T10:23:19.544Z,4.62
2018-09-16T10:25:50.498Z,5.50
2018-09-16T10:28:20.357Z,1.95
2018-09-16T10:30:51.796Z,4.12
2018-09-16T10:33:22.871Z,2.77
2018-09-16T10:35:54.004Z,2.37
2018-09-16T10:38:25.101Z,3.12
2018-09-16T10:40:55.896Z,5.60
2018-09-16T10:43:27.135Z,3.75
2018-09-16T10:45:57.808Z,4.47
2018-09-16T10:48:28.782Z,3.30
2018-09-16T10:50:59.702Z,2.58
2018-09-16T10:53:30.547Z,3.20
2018-09-16T10:56:01.620Z,3.95
2018-09-16T10:58:33.110Z,3.75
2018-09-16T11:01:03.814Z,4.00
2018-09-16T11:03:35.215Z,3.22
2018-09-16T11:06:05.837Z,5.15
2018-09-16T11:08:36.702Z,3.27
2018-09-16T11:11:08.245Z,1.98
2018-09-16T11:13:38.741Z,2.08
2018-09-16T11:16:18.859Z,5.15
2018-09-16T11:18:48.757Z,2.05
2018-09-16T11:21:19.340Z,3.83
2018-09-16T11:23:49.243Z,3.63
2018-09-16T11:26:19.131Z,4.53
2018-09-16T11:28:49.475Z,2.23
2018-09-16T11:31:19.574Z,6.25
2018-09-16T11:33:49.537Z,3.85
2018-09-16T11:36:19.319Z,2.50
2018-09-16T11:38:50.188Z,3.05
2018-09-16T11:41:20.596Z,3.50
2018-09-16T11:43:50.418Z,5.03
2018-09-16T11:46:20.366Z,3.75
2018-09-16T11:48:51.773Z,3.42
2018-09-16T11:51:22.869Z,4.80
2018-09-16T11:53:53.725Z,3.40
2018-09-16T11:56:24.626Z,3.37
2018-09-16T11:58:56.890Z,3.70
2018-09-16T12:01:26.792Z,2.00
2018-09-16T12:03:57.617Z,1.98
2018-09-16T12:06:28.414Z,3.62
2018-09-16T12:08:59.859Z,2.02
2018-09-16T12:11:30.616Z,3.52
2018-09-16T12:14:01.500Z,2.05
2018-09-16T12:16:32.385Z,1.55
2018-09-16T12:19:03.779Z,4.34
2018-09-16T12:21:34.663Z,3.27
2018-09-16T12:24:05.506Z,2.92
2018-09-16T12:26:36.466Z,2.45
2018-09-16T12:29:08.093Z,1.40
2018-09-16T12:31:37.978Z,3.55
2018-09-16T12:34:08.714Z,2.98
2018-09-16T12:36:39.464Z,1.67
2018-09-16T12:39:13.127Z,2.90
2018-09-16T12:41:43.948Z,1.80
2018-09-16T12:44:14.433Z,2.10
2018-09-16T12:46:44.226Z,3.93
2018-09-16T12:49:15.085Z,3.48
2018-09-16T12:51:46.021Z,2.65
2018-09-16T12:54:16.646Z,3.92
2018-09-16T12:56:47.882Z,2.83
2018-09-16T12:59:18.662Z,3.40
2018-09-16T13:01:49.745Z,3.35
2018-09-16T13:04:20.549Z,5.67
2018-09-16T13:07:02.111Z,2.10
2018-09-16T13:09:32.609Z,2.05
2018-09-16T13:12:02.447Z,2.53
2018-09-16T13:14:32.341Z,3.80
2018-09-16T13:17:02.227Z,5.60
2018-09-16T13:19:32.228Z,5.13
2018-09-16T13:22:01.996Z,2.13
2018-09-16T13:24:32.521Z,1.98
2018-09-16T13:27:02.313Z,8.00
2018-09-16T13:29:32.264Z,3.37
2018-09-16T13:32:13.713Z,10.16
2018-09-16T13:34:44.728Z,3.20
2018-09-16T13:37:14.913Z,5.83
2018-09-16T13:39:44.752Z,4.37
2018-09-16T13:42:14.913Z,5.13
2018-09-16T13:44:45.518Z,2.30
2018-09-16T13:47:15.538Z,1.53
2018-09-16T13:49:45.654Z,1.67
2018-09-16T13:52:15.554Z,3.10
2018-09-16T13:54:45.718Z,5.93
2018-09-16T13:57:16.469Z,2.30
2018-09-16T13:59:46.314Z,2.63
2018-09-16T14:02:16.309Z,3.23
2018-09-16T14:04:46.482Z,2.50
2018-09-16T14:07:16.333Z,4.40
2018-09-16T14:09:46.421Z,2.80
2018-09-16T14:12:16.340Z,1.30
2018-09-16T14:14:48.024Z,1.77
2018-09-16T14:17:18.583Z,1.32
2018-09-16T14:19:49.515Z,1.45
2018-09-16T14:22:20.646Z,2.27
2018-09-16T14:24:51.631Z,4.17
2018-09-16T14:27:22.884Z,4.97
2018-09-16T14:29:53.996Z,1.85
2018-09-16T14:32:24.876Z,1.95
2018-09-16T14:34:55.683Z,2.47
2018-09-16T14:37:26.662Z,3.72
2018-09-16T14:39:57.376Z,1.15
2018-09-16T14:42:28.893Z,2.58
2018-09-16T14:44:59.657Z,1.27
2018-09-16T14:47:30.543Z,2.50
2018-09-16T14:50:01.444Z,1.70
2018-09-16T14:52:32.423Z,2.35
2018-09-16T14:55:03.665Z,2.10
2018-09-16T14:57:34.666Z,1.57
2018-09-16T15:00:05.489Z,1.52
2018-09-16T15:02:36.918Z,4.02
2018-09-16T15:05:07.881Z,5.78
2018-09-16T15:07:38.652Z,3.37
2018-09-16T15:10:09.725Z,6.90
2018-09-16T15:12:40.718Z,3.02
2018-09-16T15:15:10.602Z,2.07
2018-09-16T15:17:41.297Z,2.58
2018-09-16T15:20:13.092Z,3.60
2018-09-16T15:22:43.502Z,1.70
2018-09-16T15:25:14.405Z,3.52
2018-09-16T15:27:46.169Z,4.88
2018-09-16T15:30:16.971Z,3.45
2018-09-16T15:32:47.671Z,2.05
2018-09-16T15:35:18.408Z,2.65
2018-09-16T15:37:49.769Z,1.46
2018-09-16T15:40:21.273Z,4.72
2018-09-16T15:42:51.761Z,5.42
2018-09-16T15:45:22.688Z,4.87
2018-09-16T15:47:54.739Z,9.23
2018-09-16T15:50:24.737Z,10.00
2018-09-16T15:52:55.422Z,6.78
2018-09-16T15:55:26.921Z,8.24
2018-09-16T15:57:57.705Z,16.23
2018-09-16T16:00:28.639Z,8.48
2018-09-16T16:02:59.423Z,5.55
2018-09-16T16:05:30.799Z,14.02
2018-09-16T16:08:01.579Z,13.32
2018-09-16T16:10:32.747Z,16.93
2018-09-16T16:13:03.735Z,10.28
2018-09-16T16:15:34.741Z,8.40
2018-09-16T16:18:05.512Z,8.58
2018-09-16T16:20:37.975Z,5.15
2018-09-16T16:23:07.815Z,8.17
2018-09-16T16:25:39.060Z,3.25
2018-09-16T16:28:09.661Z,4.92
2018-09-16T16:30:40.688Z,6.75
2018-09-16T16:33:11.568Z,6.30
2018-09-16T16:35:42.705Z,4.12
2018-09-16T16:38:13.932Z,3.67
2018-09-16T16:40:44.997Z,5.33
2018-09-16T16:43:15.629Z,5.05
2018-09-16T16:45:47.009Z,6.67
2018-09-16T16:48:17.801Z,7.60
2018-09-16T16:50:48.814Z,4.25
2018-09-16T16:53:19.602Z,4.55
2018-09-16T16:55:50.553Z,3.75
2018-09-16T16:58:21.488Z,3.77
2018-09-16T17:00:52.601Z,4.35
2018-09-16T17:03:23.913Z,5.15
2018-09-16T17:05:54.724Z,4.53
2018-09-16T17:08:25.504Z,3.85
2018-09-16T17:10:56.675Z,4.80
2018-09-16T17:13:31.181Z,4.73
2018-09-16T17:16:01.819Z,6.18
2018-09-16T17:18:31.669Z,6.50
2018-09-16T17:21:01.748Z,13.35
2018-09-16T17:23:31.803Z,3.90
2018-09-16T17:26:03.291Z,3.44
2018-09-16T17:28:34.091Z,6.74
2018-09-16T17:31:04.745Z,3.30
2018-09-16T17:33:35.746Z,8.03
2018-09-16T17:36:07.416Z,4.87
2018-09-16T17:38:37.933Z,8.24
2018-09-16T17:41:08.646Z,6.70
2018-09-16T17:43:39.510Z,6.75
2018-09-16T17:46:10.763Z,6.98
2018-09-16T17:48:41.656Z,7.53
2018-09-16T17:51:12.709Z,13.50
2018-09-16T17:53:43.545Z,10.43
2018-09-16T17:56:14.989Z,10.70
2018-09-16T17:58:45.664Z,13.35
2018-09-16T18:01:16.707Z,13.72
2018-09-16T18:03:47.813Z,13.90
2018-09-16T18:06:18.812Z,10.95
2018-09-16T18:08:49.760Z,9.70
2018-09-16T18:11:21.551Z,6.22
2018-09-16T18:13:51.516Z,10.85
2018-09-16T18:16:22.740Z,10.13
2018-09-16T18:18:53.699Z,12.43
2018-09-16T18:21:24.910Z,13.72
2018-09-16T18:24:01.761Z,14.55
2018-09-16T18:26:31.688Z,11.53
2018-09-16T18:29:01.468Z,17.00
2018-09-16T18:31:32.416Z,15.70
2018-09-16T18:34:02.306Z,7.83
2018-09-16T18:36:32.386Z,11.08
2018-09-16T18:39:02.912Z,11.93
2018-09-16T18:41:32.787Z,16.95
2018-09-16T18:44:03.365Z,16.37
2018-09-16T18:46:34.073Z,17.82
2018-09-16T18:49:05.117Z,19.02
2018-09-16T18:51:36.665Z,19.57
2018-09-16T18:54:06.549Z,15.33
2018-09-16T18:56:38.133Z,18.06
2018-09-16T18:59:08.837Z,14.70
2018-09-16T19:01:39.970Z,12.30
2018-09-16T19:04:10.804Z,11.55
2018-09-16T19:06:41.727Z,15.18
2018-09-16T19:09:12.829Z,10.80
2018-09-16T19:11:43.878Z,10.90
2018-09-16T19:14:15.780Z,18.65
2018-09-16T19:16:45.966Z,13.37
2018-09-16T19:19:16.739Z,14.70
2018-09-16T19:21:47.712Z,15.10
2018-09-16T19:24:18.814Z,11.33
2018-09-16T19:26:50.079Z,12.68
2018-09-16T19:29:21.400Z,14.25
2018-09-16T19:31:51.623Z,16.90
2018-09-16T19:34:22.271Z,18.23
2018-09-16T19:36:53.550Z,22.72
2018-09-16T19:39:23.321Z,21.10
2018-09-16T19:41:55.300Z,23.04
2018-09-16T19:44:25.953Z,25.02
2018-09-16T19:46:56.780Z,26.75
2018-09-16T19:49:27.888Z,20.75
2018-09-16T19:51:58.897Z,23.98
2018-09-16T19:54:29.741Z,18.62
2018-09-16T19:57:01.439Z,19.95
2018-09-16T19:59:31.834Z,20.30
2018-09-16T20:02:03.376Z,17.15
2018-09-16T20:04:34.009Z,18.56
2018-09-16T20:07:04.804Z,16.60
2018-09-16T20:09:35.856Z,15.55
2018-09-16T20:12:07.194Z,18.17
2018-09-16T20:14:38.311Z,17.10
2018-09-16T20:17:12.123Z,18.38
2018-09-16T20:19:42.513Z,15.17
2018-09-16T20:22:12.561Z,12.93
2018-09-16T20:24:42.538Z,12.77
2018-09-16T20:27:12.517Z,13.25
2018-09-16T20:29:43.992Z,11.34
2018-09-16T20:32:15.364Z,10.93
2018-09-16T20:34:46.163Z,12.74
2018-09-16T20:37:16.864Z,11.78
2018-09-16T20:39:47.800Z,10.03
2018-09-16T20:42:18.583Z,13.85
2018-09-16T20:44:49.781Z,15.53
2018-09-16T20:47:21.569Z,12.98
2018-09-16T20:49:51.429Z,11.25
2018-09-16T20:52:22.914Z,12.50
2018-09-16T20:54:53.923Z,12.25
2018-09-16T20:57:25.015Z,12.88
2018-09-16T20:59:55.993Z,11.65
2018-09-16T21:02:26.729Z,10.38
2018-09-16T21:04:57.753Z,9.78
2018-09-16T21:07:28.854Z,12.47
2018-09-16T21:10:00.287Z,9.13
2018-09-16T21:12:31.488Z,6.25
2018-09-16T21:15:01.565Z,6.60
2018-09-16T21:17:32.597Z,8.35
2018-09-16T21:20:03.636Z,6.80
2018-09-16T21:22:34.805Z,8.95
2018-09-16T21:25:06.196Z,7.60
2018-09-16T21:27:36.671Z,10.60
2018-09-16T21:30:07.666Z,8.98
2018-09-16T21:32:38.654Z,6.33
2018-09-16T21:35:09.761Z,6.62
2018-09-16T21:37:40.564Z,5.87
2018-09-16T21:40:11.925Z,9.82
2018-09-16T21:42:42.748Z,7.12
2018-09-16T21:45:13.629Z,7.95
2018-09-16T21:47:44.383Z,6.40
2018-09-16T21:50:15.718Z,7.10
2018-09-16T21:52:46.667Z,7.55
2018-09-16T21:55:17.457Z,9.28
2018-09-16T21:57:48.728Z,8.98
2018-09-16T22:00:20.097Z,10.82
2018-09-16T22:02:50.669Z,10.95
2018-09-16T22:05:21.437Z,12.03
2018-09-16T22:07:53.035Z,9.06
2018-09-16T22:10:23.658Z,13.15
2018-09-16T22:12:54.445Z,12.53
2018-09-16T22:15:25.721Z,8.90
2018-09-16T22:17:56.465Z,9.10
2018-09-16T22:20:27.881Z,9.46
2018-09-16T22:22:58.763Z,9.38
2018-09-16T22:25:29.597Z,12.07
2018-09-16T22:28:00.341Z,9.45
2018-09-16T22:30:31.828Z,12.12
2018-09-16T22:33:02.784Z,10.78
2018-09-16T22:35:33.573Z,9.33
2018-09-16T22:38:04.824Z,11.44
2018-09-16T22:40:35.660Z,13.08
2018-09-16T22:43:08.141Z,10.43
2018-09-16T22:45:38.054Z,10.23
2018-09-16T22:48:08.627Z,11.40
2018-09-16T22:50:39.592Z,8.50
2018-09-16T22:53:10.857Z,10.88
2018-09-16T22:55:41.697Z,8.78
2018-09-16T22:58:12.421Z,9.13
2018-09-16T23:00:43.793Z,8.08
2018-09-16T23:03:14.542Z,8.78
2018-09-16T23:05:45.361Z,10.25
2018-09-16T23:08:15.867Z,8.74
2018-09-16T23:10:46.640Z,8.23
2018-09-16T23:13:17.579Z,7.10
2018-09-16T23:15:48.464Z,6.72
2018-09-16T23:18:19.753Z,5.70
2018-09-16T23:20:52.176Z,6.02
2018-09-16T23:23:22.397Z,8.67
2018-09-16T23:25:52.733Z,6.77
2018-09-16T23:28:23.568Z,5.75
2018-09-16T23:30:55.033Z,6.80
2018-09-16T23:33:25.825Z,6.37
2018-09-16T23:35:56.578Z,6.30
2018-09-16T23:38:27.724Z,7.50
2018-09-16T23:40:58.818Z,6.55
2018-09-16T23:43:29.565Z,7.05
2018-09-16T23:46:00.386Z,5.58
2018-09-16T23:48:31.817Z,6.68
2018-09-16T23:51:02.592Z,5.87
2018-09-16T23:53:33.500Z,6.70
2018-09-16T23:56:04.734Z,6.00
2018-09-16T23:58:35.633Z,7.70
